createdAt,value
2023-01-26T00:00:47.384Z,6.63
2023-01-26T00:03:51.433Z,6.70
2023-01-26T00:06:54.478Z,6.23
2023-01-26T00:09:57.487Z,6.40
2023-01-26T00:13:02.547Z,5.93
2023-01-26T00:16:12.665Z,6.97
2023-01-26T00:19:15.802Z,6.00
2023-01-26T00:22:18.910Z,6.70
2023-01-26T00:25:22.436Z,6.27
2023-01-26T00:28:25.505Z,6.90
2023-01-26T00:31:30.144Z,6.17
2023-01-26T00:34:33.195Z,6.87
2023-01-26T00:37:38.765Z,6.63
2023-01-26T00:40:41.717Z,6.50
2023-01-26T00:43:46.440Z,6.13
2023-01-26T00:46:50.878Z,6.27
2023-01-26T00:49:53.971Z,6.10
2023-01-26T00:52:57.030Z,6.70
2023-01-26T00:56:00.029Z,6.70
2023-01-26T00:59:04.782Z,6.83
2023-01-26T01:02:09.295Z,6.10
2023-01-26T01:05:12.581Z,6.70
2023-01-26T01:08:15.664Z,6.13
2023-01-26T01:11:18.609Z,6.23
2023-01-26T01:14:21.596Z,6.23
2023-01-26T01:17:27.595Z,6.20
2023-01-26T01:20:30.665Z,6.10
2023-01-26T01:23:33.605Z,6.10
2023-01-26T01:26:43.919Z,5.67
2023-01-26T01:29:46.908Z,6.27
2023-01-26T01:32:58.783Z,6.33
2023-01-26T01:36:03.827Z,6.67
2023-01-26T01:39:06.889Z,5.90
2023-01-26T01:42:10.064Z,5.87
2023-01-26T01:45:41.051Z,5.97
2023-01-26T01:49:00.705Z,5.73
2023-01-26T01:52:11.657Z,5.63
2023-01-26T01:55:16.753Z,6.13
2023-01-26T01:58:20.914Z,5.90
2023-01-26T02:01:24.130Z,5.97
2023-01-26T02:04:31.232Z,5.53
2023-01-26T02:07:35.167Z,6.03
2023-01-26T02:10:38.913Z,5.87
2023-01-26T02:13:44.561Z,5.73
2023-01-26T02:16:47.593Z,5.47
2023-01-26T02:20:02.672Z,5.70
2023-01-26T02:23:12.638Z,5.53
2023-01-26T02:26:19.223Z,5.67
2023-01-26T02:29:23.567Z,5.53
2023-01-26T02:32:28.372Z,5.40
2023-01-26T02:35:31.566Z,5.83
2023-01-26T02:38:42.060Z,5.30
2023-01-26T02:42:01.378Z,6.03
2023-01-26T02:45:04.743Z,5.17
2023-01-26T02:48:08.221Z,5.33
2023-01-26T02:51:10.291Z,4.73
2023-01-26T02:54:33.565Z,4.30
2023-01-26T02:57:39.499Z,4.97
2023-01-26T03:00:42.794Z,4.57
2023-01-26T03:03:46.064Z,4.90
2023-01-26T03:06:49.117Z,4.17
2023-01-26T03:09:52.145Z,3.90
2023-01-26T03:12:56.558Z,4.03
2023-01-26T03:16:02.917Z,4.53
2023-01-26T03:19:24.060Z,4.27
2023-01-26T03:22:44.419Z,4.20
2023-01-26T03:26:04.798Z,4.10
2023-01-26T03:29:09.284Z,4.20
2023-01-26T03:32:12.726Z,4.10
2023-01-26T03:35:16.347Z,3.80
2023-01-26T03:38:21.926Z,3.30
2023-01-26T03:41:41.994Z,3.53
2023-01-26T03:45:03.769Z,3.80
2023-01-26T03:48:25.682Z,3.70
2023-01-26T03:51:46.076Z,3.63
2023-01-26T03:55:06.653Z,3.50
2023-01-26T03:58:09.665Z,3.60
2023-01-26T04:01:21.828Z,3.47
2023-01-26T04:04:42.321Z,3.37
2023-01-26T04:08:02.711Z,3.10
2023-01-26T04:11:05.729Z,2.83
2023-01-26T04:14:29.600Z,3.50
2023-01-26T04:17:57.496Z,3.23
2023-01-26T04:21:20.858Z,3.30
2023-01-26T04:24:24.686Z,3.30
2023-01-26T04:27:27.865Z,3.87
2023-01-26T04:30:30.969Z,3.10
2023-01-26T04:33:35.562Z,5.80
2023-01-26T04:36:38.663Z,3.83
2023-01-26T04:39:41.617Z,4.23
2023-01-26T04:42:44.674Z,3.60
2023-01-26T04:45:58.902Z,4.13
2023-01-26T04:49:03.387Z,3.03
2023-01-26T04:52:06.671Z,3.70
2023-01-26T04:55:10.643Z,3.37
2023-01-26T04:58:13.592Z,3.40
2023-01-26T05:01:16.659Z,3.63
2023-01-26T05:04:21.124Z,3.47
2023-01-26T05:07:24.224Z,3.50
2023-01-26T05:10:29.599Z,3.20
2023-01-26T05:13:32.687Z,3.50
2023-01-26T05:16:35.721Z,3.43
2023-01-26T05:19:40.265Z,3.70
2023-01-26T05:22:43.469Z,3.10
2023-01-26T05:25:46.548Z,3.00
2023-01-26T05:28:49.571Z,3.13
2023-01-26T05:31:52.585Z,3.00
2023-01-26T05:34:57.450Z,3.40
2023-01-26T05:38:02.564Z,3.03
2023-01-26T05:41:07.545Z,3.00
2023-01-26T05:44:10.737Z,3.40
2023-01-26T05:47:13.927Z,3.90
2023-01-26T05:50:18.778Z,3.00
2023-01-26T05:53:24.418Z,3.80
2023-01-26T05:56:27.452Z,4.10
2023-01-26T05:59:31.556Z,3.50
2023-01-26T06:02:34.602Z,3.87
2023-01-26T06:05:41.039Z,3.93
2023-01-26T06:08:44.096Z,4.00
2023-01-26T06:11:47.468Z,4.43
2023-01-26T06:14:50.610Z,4.40
2023-01-26T06:17:56.200Z,4.50
2023-01-26T06:21:01.732Z,5.00
2023-01-26T06:24:05.169Z,4.57
2023-01-26T06:27:14.353Z,4.70
2023-01-26T06:30:19.965Z,5.00
2023-01-26T06:33:28.112Z,5.03
2023-01-26T06:36:33.852Z,4.33
2023-01-26T06:39:41.380Z,5.13
2023-01-26T06:42:52.120Z,4.93
2023-01-26T06:45:59.709Z,5.50
2023-01-26T06:49:03.404Z,5.23
2023-01-26T06:52:23.419Z,4.70
2023-01-26T06:55:38.264Z,4.50
2023-01-26T06:58:41.337Z,4.40
2023-01-26T07:01:48.810Z,4.87
2023-01-26T07:04:54.142Z,4.60
2023-01-26T07:08:00.475Z,4.47
2023-01-26T07:11:04.683Z,4.63
2023-01-26T07:14:07.748Z,4.13
2023-01-26T07:17:12.726Z,4.70
2023-01-26T07:20:15.864Z,4.47
2023-01-26T07:23:20.270Z,4.57
2023-01-26T07:26:28.136Z,4.30
2023-01-26T07:29:35.337Z,4.70
2023-01-26T07:32:38.382Z,4.13
2023-01-26T07:35:41.416Z,4.60
2023-01-26T07:38:45.881Z,4.43
2023-01-26T07:41:51.647Z,4.77
2023-01-26T07:44:56.517Z,4.87
2023-01-26T07:47:59.582Z,4.20
2023-01-26T07:51:04.768Z,4.27
2023-01-26T07:54:11.790Z,4.80
2023-01-26T07:57:14.846Z,4.30
2023-01-26T08:00:19.251Z,4.33
2023-01-26T08:03:25.391Z,4.27
2023-01-26T08:06:28.379Z,4.33
2023-01-26T08:09:36.947Z,4.50
2023-01-26T08:12:41.325Z,4.03
2023-01-26T08:15:45.711Z,4.53
2023-01-26T08:18:51.229Z,4.03
2023-01-26T08:21:57.377Z,3.93
2023-01-26T08:25:01.888Z,3.50
2023-01-26T08:28:04.955Z,3.70
2023-01-26T08:31:13.699Z,3.77
2023-01-26T08:34:16.798Z,3.40
2023-01-26T08:37:19.854Z,3.60
2023-01-26T08:40:28.478Z,3.70
2023-01-26T08:43:34.071Z,3.60
2023-01-26T08:46:40.258Z,3.00
2023-01-26T08:49:43.298Z,3.20
2023-01-26T08:52:46.585Z,3.50
2023-01-26T08:55:53.330Z,3.23
2023-01-26T08:58:56.430Z,2.80
2023-01-26T09:02:01.908Z,3.23
2023-01-26T09:05:05.287Z,3.60
2023-01-26T09:08:12.334Z,3.23
2023-01-26T09:11:17.257Z,3.40
2023-01-26T09:14:21.761Z,3.00
2023-01-26T09:17:27.180Z,3.07
2023-01-26T09:20:31.106Z,3.23
2023-01-26T09:23:35.220Z,2.80
2023-01-26T09:26:39.728Z,3.10
2023-01-26T09:29:42.831Z,3.40
2023-01-26T09:32:47.660Z,3.20
2023-01-26T09:35:52.353Z,3.20
2023-01-26T09:38:55.440Z,2.70
2023-01-26T09:42:13.849Z,2.50
2023-01-26T09:45:32.106Z,3.07
2023-01-26T09:48:45.046Z,3.00
2023-01-26T09:51:51.222Z,2.90
2023-01-26T09:54:59.698Z,2.93
2023-01-26T09:58:07.585Z,2.80
2023-01-26T10:01:22.340Z,2.83
2023-01-26T10:04:34.007Z,2.27
2023-01-26T10:07:37.785Z,3.00
2023-01-26T10:10:45.597Z,2.57
2023-01-26T10:13:59.929Z,3.03
2023-01-26T10:17:06.525Z,2.80
2023-01-26T10:20:23.884Z,2.30
2023-01-26T10:23:29.772Z,2.30
2023-01-26T10:26:35.261Z,2.67
2023-01-26T10:29:39.688Z,2.10
2023-01-26T10:32:45.008Z,2.37
2023-01-26T10:35:49.441Z,2.30
2023-01-26T10:38:53.390Z,2.17
2023-01-26T10:42:01.422Z,2.33
2023-01-26T10:45:09.103Z,2.13
2023-01-26T10:48:19.355Z,2.60
2023-01-26T10:51:26.790Z,2.33
2023-01-26T10:54:30.106Z,2.13
2023-01-26T10:57:35.892Z,2.10
2023-01-26T11:00:42.291Z,2.03
2023-01-26T11:04:02.335Z,1.97
2023-01-26T11:07:29.353Z,1.90
2023-01-26T11:10:33.979Z,1.80
2023-01-26T11:13:41.333Z,1.90
2023-01-26T11:16:51.463Z,2.07
2023-01-26T11:20:08.592Z,1.87
2023-01-26T11:23:26.819Z,1.97
2023-01-26T11:27:04.093Z,2.07
2023-01-26T11:30:38.420Z,1.80
2023-01-26T11:33:51.416Z,1.90
2023-01-26T11:37:04.117Z,2.00
2023-01-26T11:40:24.493Z,2.03
2023-01-26T11:43:51.783Z,1.97
2023-01-26T11:47:18.491Z,1.90
2023-01-26T11:50:35.103Z,2.30
2023-01-26T11:53:58.991Z,2.03
2023-01-26T11:57:11.239Z,1.80
2023-01-26T12:00:29.441Z,2.00
2023-01-26T12:03:44.131Z,2.27
2023-01-26T12:06:54.109Z,2.17
2023-01-26T12:09:57.746Z,2.13
2023-01-26T12:13:09.355Z,2.30
2023-01-26T12:16:19.317Z,2.10
2023-01-26T12:19:38.118Z,2.60
2023-01-26T12:22:48.078Z,2.10
2023-01-26T12:25:56.974Z,2.37
2023-01-26T12:29:09.675Z,2.30
2023-01-26T12:32:15.232Z,2.27
2023-01-26T12:35:31.896Z,2.40
2023-01-26T12:38:48.433Z,2.50
2023-01-26T12:42:05.127Z,2.00
2023-01-26T12:45:18.312Z,2.07
2023-01-26T12:48:27.049Z,2.00
2023-01-26T12:51:46.815Z,2.70
2023-01-26T12:54:59.339Z,2.30
2023-01-26T12:58:05.866Z,2.40
2023-01-26T13:01:12.943Z,2.00
2023-01-26T13:04:22.361Z,2.53
2023-01-26T13:07:33.739Z,2.13
2023-01-26T13:10:52.990Z,2.53
2023-01-26T13:13:57.863Z,2.97
2023-01-26T13:17:58.048Z,2.90
2023-01-26T13:21:01.182Z,2.50
2023-01-26T13:24:04.389Z,2.60
2023-01-26T13:27:29.692Z,2.50
2023-01-26T13:30:44.703Z,2.60
2023-01-26T13:33:50.737Z,2.60
2023-01-26T13:36:58.479Z,2.80
2023-01-26T13:40:07.962Z,2.67
2023-01-26T13:43:26.785Z,2.77
2023-01-26T13:46:36.211Z,3.10
2023-01-26T13:49:44.022Z,3.50
2023-01-26T13:52:47.066Z,2.97
2023-01-26T13:55:57.535Z,2.97
2023-01-26T13:59:13.997Z,2.73
2023-01-26T14:02:25.995Z,3.37
2023-01-26T14:05:31.684Z,3.43
2023-01-26T14:08:34.944Z,3.50
2023-01-26T14:11:38.137Z,3.60
2023-01-26T14:14:45.212Z,3.60
2023-01-26T14:17:52.883Z,3.10
2023-01-26T14:21:04.180Z,3.27
2023-01-26T14:24:12.051Z,3.70
2023-01-26T14:27:36.818Z,3.80
2023-01-26T14:30:42.037Z,3.80
2023-01-26T14:33:45.531Z,3.40
2023-01-26T14:36:51.163Z,3.73
2023-01-26T14:40:19.335Z,3.40
2023-01-26T14:43:25.098Z,3.53
2023-01-26T14:46:37.104Z,3.60
2023-01-26T14:49:46.434Z,3.57
2023-01-26T14:52:49.525Z,4.17
2023-01-26T14:55:54.868Z,3.63
2023-01-26T14:58:58.117Z,3.77
2023-01-26T15:02:16.654Z,3.73
2023-01-26T15:05:22.061Z,3.70
2023-01-26T15:08:26.380Z,3.77
2023-01-26T15:11:52.121Z,3.30
2023-01-26T15:15:01.249Z,3.60
2023-01-26T15:18:16.974Z,3.30
2023-01-26T15:21:22.777Z,3.90
2023-01-26T15:24:26.667Z,3.60
2023-01-26T15:27:35.423Z,3.50
2023-01-26T15:30:39.117Z,3.60
2023-01-26T15:33:48.052Z,3.53
2023-01-26T15:36:51.906Z,3.80
2023-01-26T15:39:54.961Z,3.50
2023-01-26T15:43:12.893Z,3.20
2023-01-26T15:46:16.110Z,3.30
2023-01-26T15:49:22.998Z,3.40
2023-01-26T15:52:30.459Z,3.20
2023-01-26T15:55:36.220Z,4.00
2023-01-26T15:58:41.715Z,3.33
2023-01-26T16:01:44.896Z,4.10
2023-01-26T16:04:53.807Z,4.20
2023-01-26T16:08:02.317Z,3.73
2023-01-26T16:11:07.451Z,3.90
2023-01-26T16:14:15.236Z,3.80
2023-01-26T16:17:19.597Z,3.73
2023-01-26T16:20:24.067Z,4.13
2023-01-26T16:23:29.345Z,3.80
2023-01-26T16:26:36.337Z,3.67
2023-01-26T16:29:41.323Z,3.73
2023-01-26T16:32:45.137Z,4.03
2023-01-26T16:35:49.683Z,3.70
2023-01-26T16:38:52.883Z,3.67
2023-01-26T16:41:55.923Z,3.50
2023-01-26T16:45:06.659Z,3.40
2023-01-26T16:48:15.896Z,3.50
2023-01-26T16:51:23.871Z,3.47
2023-01-26T16:54:31.257Z,4.00
2023-01-26T16:57:34.310Z,3.77
2023-01-26T17:00:37.520Z,3.00
2023-01-26T17:03:40.534Z,4.10
2023-01-26T17:06:46.479Z,3.27
2023-01-26T17:09:49.512Z,3.17
2023-01-26T17:12:55.728Z,3.37
2023-01-26T17:15:59.258Z,3.50
2023-01-26T17:19:02.309Z,3.20
2023-01-26T17:22:18.905Z,3.53
2023-01-26T17:25:21.948Z,3.23
2023-01-26T17:28:25.154Z,3.07
2023-01-26T17:31:28.709Z,3.20
2023-01-26T17:34:31.753Z,3.80
2023-01-26T17:37:37.672Z,3.50
2023-01-26T17:40:40.739Z,4.13
2023-01-26T17:43:43.836Z,4.47
2023-01-26T17:46:46.905Z,4.53
2023-01-26T17:49:50.013Z,5.30
2023-01-26T17:52:54.452Z,6.00
2023-01-26T17:55:57.528Z,5.53
2023-01-26T17:59:00.611Z,6.63
2023-01-26T18:02:03.861Z,6.37
2023-01-26T18:05:10.568Z,6.40
2023-01-26T18:08:16.593Z,6.70
2023-01-26T18:11:19.695Z,6.00
2023-01-26T18:14:22.835Z,6.40
2023-01-26T18:17:29.171Z,6.50
2023-01-26T18:20:32.524Z,6.10
2023-01-26T18:23:37.534Z,6.67
2023-01-26T18:26:43.176Z,6.10
2023-01-26T18:29:46.255Z,6.80
2023-01-26T18:32:49.892Z,6.50
2023-01-26T18:35:54.117Z,7.10
2023-01-26T18:39:01.747Z,6.50
2023-01-26T18:42:05.036Z,6.03
2023-01-26T18:45:09.394Z,6.40
2023-01-26T18:48:12.693Z,6.20
2023-01-26T18:51:16.023Z,6.40
2023-01-26T18:54:21.103Z,6.70
2023-01-26T18:57:24.227Z,5.43
2023-01-26T19:00:27.523Z,5.60
2023-01-26T19:03:32.672Z,5.50
2023-01-26T19:06:36.480Z,5.10
2023-01-26T19:09:41.497Z,5.80
2023-01-26T19:12:48.078Z,5.10
2023-01-26T19:15:51.334Z,4.63
2023-01-26T19:18:55.608Z,4.40
2023-01-26T19:21:58.825Z,3.90
2023-01-26T19:25:03.412Z,4.67
2023-01-26T19:28:08.557Z,3.80
2023-01-26T19:31:14.181Z,4.13
2023-01-26T19:34:18.279Z,3.80
2023-01-26T19:37:21.311Z,3.30
2023-01-26T19:40:27.137Z,3.27
2023-01-26T19:43:32.660Z,3.20
2023-01-26T19:46:35.745Z,3.10
2023-01-26T19:49:38.931Z,3.00
2023-01-26T19:52:45.133Z,2.60
2023-01-26T19:55:49.616Z,2.80
2023-01-26T19:58:54.452Z,2.80
2023-01-26T20:01:57.582Z,2.70
2023-01-26T20:05:02.758Z,2.87
2023-01-26T20:08:15.493Z,2.40
2023-01-26T20:11:26.434Z,2.23
2023-01-26T20:14:32.446Z,2.50
2023-01-26T20:17:39.745Z,2.93
2023-01-26T20:20:42.768Z,2.50
2023-01-26T20:23:54.250Z,2.00
2023-01-26T20:26:59.650Z,2.80
2023-01-26T20:30:02.964Z,2.80
2023-01-26T20:33:07.554Z,2.20
2023-01-26T20:36:13.739Z,2.30
2023-01-26T20:39:24.554Z,2.40
2023-01-26T20:42:29.080Z,2.70
2023-01-26T20:45:32.176Z,2.93
2023-01-26T20:48:35.781Z,2.40
2023-01-26T20:51:42.631Z,2.30
2023-01-26T20:54:48.341Z,2.60
2023-01-26T20:57:52.799Z,2.20
2023-01-26T21:01:03.553Z,2.17
2023-01-26T21:04:09.725Z,2.13
2023-01-26T21:07:12.767Z,2.13
2023-01-26T21:10:18.197Z,2.60
2023-01-26T21:13:22.747Z,2.30
2023-01-26T21:16:26.317Z,2.50
2023-01-26T21:19:29.490Z,3.00
2023-01-26T21:22:32.497Z,3.40
2023-01-26T21:25:35.537Z,3.13
2023-01-26T21:28:41.894Z,3.53
2023-01-26T21:31:48.874Z,3.40
2023-01-26T21:34:53.275Z,4.10
2023-01-26T21:37:56.460Z,5.90
2023-01-26T21:41:01.061Z,4.30
2023-01-26T21:44:07.228Z,3.97
2023-01-26T21:47:10.385Z,5.67
2023-01-26T21:50:13.648Z,5.40
2023-01-26T21:53:15.789Z,5.40
2023-01-26T21:56:24.498Z,5.63
2023-01-26T21:59:30.147Z,5.17
2023-01-26T22:02:33.228Z,6.07
2023-01-26T22:05:36.884Z,5.80
2023-01-26T22:08:40.141Z,7.27
2023-01-26T22:11:44.915Z,7.20
2023-01-26T22:14:49.651Z,9.20
2023-01-26T22:17:53.174Z,7.90
2023-01-26T22:20:56.513Z,9.33
2023-01-26T22:23:59.669Z,11.27
2023-01-26T22:27:02.926Z,9.97
2023-01-26T22:30:16.232Z,9.87
2023-01-26T22:33:19.283Z,9.70
2023-01-26T22:36:23.261Z,11.00
2023-01-26T22:39:26.404Z,8.83
2023-01-26T22:42:32.112Z,11.80
2023-01-26T22:45:36.836Z,10.20
2023-01-26T22:48:40.130Z,10.67
2023-01-26T22:51:43.792Z,9.57
2023-01-26T22:54:47.075Z,11.30
2023-01-26T22:57:52.482Z,10.57
2023-01-26T23:01:05.315Z,10.43
2023-01-26T23:04:08.626Z,9.43
2023-01-26T23:07:11.763Z,8.87
2023-01-26T23:10:15.081Z,9.10
2023-01-26T23:13:18.278Z,9.10
2023-01-26T23:16:23.847Z,10.33
2023-01-26T23:19:27.055Z,10.27
2023-01-26T23:22:30.272Z,8.53
2023-01-26T23:25:59.301Z,8.90
2023-01-26T23:29:02.428Z,8.77
2023-01-26T23:32:08.688Z,9.17
2023-01-26T23:35:17.664Z,8.07
2023-01-26T23:38:22.729Z,8.40
2023-01-26T23:41:25.755Z,8.33
2023-01-26T23:44:31.741Z,8.63
2023-01-26T23:47:36.575Z,8.13
2023-01-26T23:50:40.062Z,7.00
2023-01-26T23:53:43.271Z,8.03
2023-01-26T23:56:46.281Z,6.80
2023-01-26T23:59:49.503Z,6.83
